sensor_id;sensor_type;location;lat;lon;timestamp;temperature;humidity
20560;DHT22;10438;51.454;6.718;2023-04-01T00:01:25;9.90;99.90
20560;DHT22;10438;51.454;6.718;2023-04-01T00:03:51;9.90;99.90
20560;DHT22;10438;51.454;6.718;2023-04-01T00:06:18;9.90;99.90
20560;DHT22;10438;51.454;6.718;2023-04-01T00:08:44;9.90;99.90
20560;DHT22;10438;51.454;6.718;2023-04-01T00:11:10;9.90;99.90
20560;DHT22;10438;51.454;6.718;2023-04-01T00:13:36;9.90;99.90
20560;DHT22;10438;51.454;6.718;2023-04-01T00:16:01;9.90;99.90
20560;DHT22;10438;51.454;6.718;2023-04-01T00:18:28;9.90;99.90
20560;DHT22;10438;51.454;6.718;2023-04-01T00:20:53;9.90;99.90
20560;DHT22;10438;51.454;6.718;2023-04-01T00:23:19;9.90;99.90
20560;DHT22;10438;51.454;6.718;2023-04-01T00:25:45;9.90;99.90
20560;DHT22;10438;51.454;6.718;2023-04-01T00:28:17;10.00;99.90
20560;DHT22;10438;51.454;6.718;2023-04-01T00:30:43;10.00;99.90
20560;DHT22;10438;51.454;6.718;2023-04-01T00:33:08;10.00;99.90
20560;DHT22;10438;51.454;6.718;2023-04-01T00:35:34;10.00;99.90
20560;DHT22;10438;51.454;6.718;2023-04-01T00:38:00;10.00;99.90
20560;DHT22;10438;51.454;6.718;2023-04-01T00:40:37;9.90;99.90
20560;DHT22;10438;51.454;6.718;2023-04-01T00:43:13;9.90;99.90
20560;DHT22;10438;51.454;6.718;2023-04-01T00:45:41;10.00;99.90
20560;DHT22;10438;51.454;6.718;2023-04-01T00:48:11;9.90;99.90
20560;DHT22;10438;51.454;6.718;2023-04-01T00:50:40;9.90;99.90
20560;DHT22;10438;51.454;6.718;2023-04-01T00:53:07;9.90;99.90
20560;DHT22;10438;51.454;6.718;2023-04-01T00:55:35;9.90;99.90
20560;DHT22;10438;51.454;6.718;2023-04-01T00:58:06;9.90;99.90
20560;DHT22;10438;51.454;6.718;2023-04-01T01:00:34;9.80;99.90
20560;DHT22;10438;51.454;6.718;2023-04-01T01:03:00;9.80;99.90
20560;DHT22;10438;51.454;6.718;2023-04-01T01:05:53;9.80;99.90
20560;DHT22;10438;51.454;6.718;2023-04-01T01:08:47;9.80;99.90
20560;DHT22;10438;51.454;6.718;2023-04-01T01:11:28;9.80;99.90
20560;DHT22;10438;51.454;6.718;2023-04-01T01:14:05;9.80;99.90
20560;DHT22;10438;51.454;6.718;2023-04-01T01:16:41;9.80;99.90
20560;DHT22;10438;51.454;6.718;2023-04-01T01:19:39;9.80;99.90
20560;DHT22;10438;51.454;6.718;2023-04-01T01:24:56;9.80;99.90
20560;DHT22;10438;51.454;6.718;2023-04-01T01:27:29;9.80;99.90
20560;DHT22;10438;51.454;6.718;2023-04-01T01:32:52;9.90;99.90
20560;DHT22;10438;51.454;6.718;2023-04-01T01:35:35;9.80;99.90
20560;DHT22;10438;51.454;6.718;2023-04-01T01:38:10;9.80;99.90
20560;DHT22;10438;51.454;6.718;2023-04-01T01:40:38;9.80;99.90
20560;DHT22;10438;51.454;6.718;2023-04-01T01:43:10;9.80;99.90
20560;DHT22;10438;51.454;6.718;2023-04-01T01:45:42;9.80;99.90
20560;DHT22;10438;51.454;6.718;2023-04-01T01:48:09;9.90;99.90
20560;DHT22;10438;51.454;6.718;2023-04-01T01:50:35;9.90;99.90
20560;DHT22;10438;51.454;6.718;2023-04-01T01:53:06;9.90;99.90
20560;DHT22;10438;51.454;6.718;2023-04-01T01:55:38;9.90;99.90
20560;DHT22;10438;51.454;6.718;2023-04-01T01:58:17;10.00;99.90
20560;DHT22;10438;51.454;6.718;2023-04-01T02:00:51;9.90;99.90
20560;DHT22;10438;51.454;6.718;2023-04-01T02:03:20;10.00;99.90
20560;DHT22;10438;51.454;6.718;2023-04-01T02:05:47;10.00;99.90
20560;DHT22;10438;51.454;6.718;2023-04-01T02:08:20;10.00;99.90
20560;DHT22;10438;51.454;6.718;2023-04-01T02:11:07;9.90;99.90
20560;DHT22;10438;51.454;6.718;2023-04-01T02:13:39;9.90;99.90
20560;DHT22;10438;51.454;6.718;2023-04-01T02:16:15;9.90;99.90
20560;DHT22;10438;51.454;6.718;2023-04-01T02:18:45;9.90;99.90
20560;DHT22;10438;51.454;6.718;2023-04-01T02:21:13;9.90;99.90
20560;DHT22;10438;51.454;6.718;2023-04-01T02:23:40;9.90;99.90
20560;DHT22;10438;51.454;6.718;2023-04-01T02:26:07;9.90;99.90
20560;DHT22;10438;51.454;6.718;2023-04-01T02:28:36;9.80;99.90
20560;DHT22;10438;51.454;6.718;2023-04-01T02:31:03;9.80;99.90
20560;DHT22;10438;51.454;6.718;2023-04-01T02:33:30;9.80;99.90
20560;DHT22;10438;51.454;6.718;2023-04-01T02:35:57;9.70;99.90
20560;DHT22;10438;51.454;6.718;2023-04-01T02:38:23;9.80;99.90
20560;DHT22;10438;51.454;6.718;2023-04-01T02:40:51;9.70;99.90
20560;DHT22;10438;51.454;6.718;2023-04-01T02:43:21;9.70;99.90
20560;DHT22;10438;51.454;6.718;2023-04-01T02:45:46;9.60;99.90
20560;DHT22;10438;51.454;6.718;2023-04-01T02:48:12;9.60;99.90
20560;DHT22;10438;51.454;6.718;2023-04-01T02:50:39;9.60;99.90
20560;DHT22;10438;51.454;6.718;2023-04-01T02:53:05;9.60;99.90
20560;DHT22;10438;51.454;6.718;2023-04-01T02:55:32;9.60;99.90
20560;DHT22;10438;51.454;6.718;2023-04-01T02:57:57;9.50;99.90
20560;DHT22;10438;51.454;6.718;2023-04-01T03:00:23;9.50;99.90
20560;DHT22;10438;51.454;6.718;2023-04-01T03:02:48;9.50;99.90
20560;DHT22;10438;51.454;6.718;2023-04-01T03:05:14;9.50;99.90
20560;DHT22;10438;51.454;6.718;2023-04-01T03:07:40;9.50;99.90
20560;DHT22;10438;51.454;6.718;2023-04-01T03:10:06;9.50;99.90
20560;DHT22;10438;51.454;6.718;2023-04-01T03:12:32;9.50;99.90
20560;DHT22;10438;51.454;6.718;2023-04-01T03:14:57;9.50;99.90
20560;DHT22;10438;51.454;6.718;2023-04-01T03:17:23;9.50;99.90
20560;DHT22;10438;51.454;6.718;2023-04-01T03:19:48;9.50;99.90
20560;DHT22;10438;51.454;6.718;2023-04-01T03:22:14;9.50;99.90
20560;DHT22;10438;51.454;6.718;2023-04-01T03:24:40;9.50;99.90
20560;DHT22;10438;51.454;6.718;2023-04-01T03:27:06;9.50;99.90
20560;DHT22;10438;51.454;6.718;2023-04-01T03:29:31;9.50;99.90
20560;DHT22;10438;51.454;6.718;2023-04-01T03:31:57;9.50;99.90
20560;DHT22;10438;51.454;6.718;2023-04-01T03:34:24;9.50;99.90
20560;DHT22;10438;51.454;6.718;2023-04-01T03:36:51;9.50;99.90
20560;DHT22;10438;51.454;6.718;2023-04-01T03:39:16;9.50;99.90
20560;DHT22;10438;51.454;6.718;2023-04-01T03:41:44;9.50;99.90
20560;DHT22;10438;51.454;6.718;2023-04-01T03:44:10;9.50;99.90
20560;DHT22;10438;51.454;6.718;2023-04-01T03:46:36;9.50;99.90
20560;DHT22;10438;51.454;6.718;2023-04-01T03:49:01;9.50;99.90
20560;DHT22;10438;51.454;6.718;2023-04-01T03:51:27;9.50;99.90
20560;DHT22;10438;51.454;6.718;2023-04-01T03:53:52;9.60;99.90
20560;DHT22;10438;51.454;6.718;2023-04-01T03:56:18;9.60;99.90
20560;DHT22;10438;51.454;6.718;2023-04-01T03:58:43;9.60;99.90
20560;DHT22;10438;51.454;6.718;2023-04-01T04:01:20;9.60;99.90
20560;DHT22;10438;51.454;6.718;2023-04-01T04:03:46;9.60;99.90
20560;DHT22;10438;51.454;6.718;2023-04-01T04:06:14;9.60;99.90
20560;DHT22;10438;51.454;6.718;2023-04-01T04:08:40;9.60;99.90
20560;DHT22;10438;51.454;6.718;2023-04-01T04:11:06;9.60;99.90
20560;DHT22;10438;51.454;6.718;2023-04-01T04:13:32;9.60;99.90
20560;DHT22;10438;51.454;6.718;2023-04-01T04:15:58;9.60;99.90
20560;DHT22;10438;51.454;6.718;2023-04-01T04:18:23;9.60;99.90
20560;DHT22;10438;51.454;6.718;2023-04-01T04:20:49;9.60;99.90
20560;DHT22;10438;51.454;6.718;2023-04-01T04:23:16;9.50;99.90
20560;DHT22;10438;51.454;6.718;2023-04-01T04:25:56;9.60;99.90
20560;DHT22;10438;51.454;6.718;2023-04-01T04:28:22;9.50;99.90
20560;DHT22;10438;51.454;6.718;2023-04-01T04:30:47;9.50;99.90
20560;DHT22;10438;51.454;6.718;2023-04-01T04:33:13;9.50;99.90
20560;DHT22;10438;51.454;6.718;2023-04-01T04:35:38;9.60;99.90
20560;DHT22;10438;51.454;6.718;2023-04-01T04:38:04;9.60;99.90
20560;DHT22;10438;51.454;6.718;2023-04-01T04:40:30;9.60;99.90
20560;DHT22;10438;51.454;6.718;2023-04-01T04:42:55;9.60;99.90
20560;DHT22;10438;51.454;6.718;2023-04-01T04:45:21;9.60;99.90
20560;DHT22;10438;51.454;6.718;2023-04-01T04:47:46;9.60;99.90
20560;DHT22;10438;51.454;6.718;2023-04-01T04:50:12;9.50;99.90
20560;DHT22;10438;51.454;6.718;2023-04-01T04:52:38;9.50;99.90
20560;DHT22;10438;51.454;6.718;2023-04-01T04:55:04;9.50;99.90
20560;DHT22;10438;51.454;6.718;2023-04-01T04:57:29;9.50;99.90
20560;DHT22;10438;51.454;6.718;2023-04-01T04:59:55;9.50;99.90
20560;DHT22;10438;51.454;6.718;2023-04-01T05:02:21;9.50;99.90
20560;DHT22;10438;51.454;6.718;2023-04-01T05:04:46;9.50;99.90
20560;DHT22;10438;51.454;6.718;2023-04-01T05:07:12;9.50;99.90
20560;DHT22;10438;51.454;6.718;2023-04-01T05:09:37;9.50;99.90
20560;DHT22;10438;51.454;6.718;2023-04-01T05:12:03;9.50;99.90
20560;DHT22;10438;51.454;6.718;2023-04-01T05:14:28;9.60;99.90
20560;DHT22;10438;51.454;6.718;2023-04-01T05:16:54;9.60;99.90
20560;DHT22;10438;51.454;6.718;2023-04-01T05:19:19;9.60;99.90
20560;DHT22;10438;51.454;6.718;2023-04-01T05:21:45;9.60;99.90
20560;DHT22;10438;51.454;6.718;2023-04-01T05:24:11;9.60;99.90
20560;DHT22;10438;51.454;6.718;2023-04-01T05:26:36;9.50;99.90
20560;DHT22;10438;51.454;6.718;2023-04-01T05:29:03;9.50;99.90
20560;DHT22;10438;51.454;6.718;2023-04-01T05:31:29;9.50;99.90
20560;DHT22;10438;51.454;6.718;2023-04-01T05:33:55;9.50;99.90
20560;DHT22;10438;51.454;6.718;2023-04-01T05:36:20;9.50;99.90
20560;DHT22;10438;51.454;6.718;2023-04-01T05:38:46;9.50;99.90
20560;DHT22;10438;51.454;6.718;2023-04-01T05:41:13;9.50;99.90
20560;DHT22;10438;51.454;6.718;2023-04-01T05:43:40;9.50;99.90
20560;DHT22;10438;51.454;6.718;2023-04-01T05:46:05;9.50;99.90
20560;DHT22;10438;51.454;6.718;2023-04-01T05:48:33;9.40;99.90
20560;DHT22;10438;51.454;6.718;2023-04-01T05:51:00;9.40;99.90
20560;DHT22;10438;51.454;6.718;2023-04-01T05:53:25;9.40;99.90
20560;DHT22;10438;51.454;6.718;2023-04-01T05:55:51;9.50;99.90
20560;DHT22;10438;51.454;6.718;2023-04-01T05:58:16;9.50;99.90
20560;DHT22;10438;51.454;6.718;2023-04-01T06:00:42;9.40;99.90
20560;DHT22;10438;51.454;6.718;2023-04-01T06:03:08;9.40;99.90
20560;DHT22;10438;51.454;6.718;2023-04-01T06:05:41;9.40;99.90
20560;DHT22;10438;51.454;6.718;2023-04-01T06:08:13;9.40;99.90
20560;DHT22;10438;51.454;6.718;2023-04-01T06:21:47;9.40;99.90
20560;DHT22;10438;51.454;6.718;2023-04-01T06:24:26;9.50;99.90
20560;DHT22;10438;51.454;6.718;2023-04-01T06:27:20;9.40;99.90
20560;DHT22;10438;51.454;6.718;2023-04-01T06:32:39;9.40;99.90
20560;DHT22;10438;51.454;6.718;2023-04-01T06:35:19;9.40;99.90
20560;DHT22;10438;51.454;6.718;2023-04-01T06:38:17;9.40;99.90
20560;DHT22;10438;51.454;6.718;2023-04-01T06:40:51;9.40;99.90
20560;DHT22;10438;51.454;6.718;2023-04-01T06:54:38;9.40;99.90
20560;DHT22;10438;51.454;6.718;2023-04-01T06:57:50;9.50;99.90
20560;DHT22;10438;51.454;6.718;2023-04-01T07:00:15;9.50;99.90
20560;DHT22;10438;51.454;6.718;2023-04-01T07:02:48;9.50;99.90
20560;DHT22;10438;51.454;6.718;2023-04-01T07:05:19;9.40;99.90
20560;DHT22;10438;51.454;6.718;2023-04-01T07:07:49;9.50;99.90
20560;DHT22;10438;51.454;6.718;2023-04-01T07:10:23;9.50;99.90
20560;DHT22;10438;51.454;6.718;2023-04-01T07:12:53;9.40;99.90
20560;DHT22;10438;51.454;6.718;2023-04-01T07:15:22;9.40;99.90
20560;DHT22;10438;51.454;6.718;2023-04-01T07:17:56;9.50;99.90
20560;DHT22;10438;51.454;6.718;2023-04-01T07:20:32;9.50;99.90
20560;DHT22;10438;51.454;6.718;2023-04-01T07:23:32;9.40;99.90
20560;DHT22;10438;51.454;6.718;2023-04-01T07:26:24;9.40;99.90
20560;DHT22;10438;51.454;6.718;2023-04-01T07:28:53;9.50;99.90
20560;DHT22;10438;51.454;6.718;2023-04-01T07:31:29;9.40;99.90
20560;DHT22;10438;51.454;6.718;2023-04-01T07:34:40;9.40;99.90
20560;DHT22;10438;51.454;6.718;2023-04-01T07:37:12;9.50;99.90
20560;DHT22;10438;51.454;6.718;2023-04-01T07:42:56;9.50;99.90
20560;DHT22;10438;51.454;6.718;2023-04-01T07:45:34;9.50;99.90
20560;DHT22;10438;51.454;6.718;2023-04-01T07:51:02;9.60;99.90
20560;DHT22;10438;51.454;6.718;2023-04-01T07:53:41;9.60;99.90
20560;DHT22;10438;51.454;6.718;2023-04-01T07:56:12;9.60;99.90
20560;DHT22;10438;51.454;6.718;2023-04-01T08:07:22;9.60;99.90
20560;DHT22;10438;51.454;6.718;2023-04-01T08:10:04;9.60;99.90
20560;DHT22;10438;51.454;6.718;2023-04-01T08:15:25;9.60;99.90
20560;DHT22;10438;51.454;6.718;2023-04-01T08:20:47;9.60;99.90
20560;DHT22;10438;51.454;6.718;2023-04-01T08:23:24;9.60;99.90
20560;DHT22;10438;51.454;6.718;2023-04-01T08:25:58;9.70;99.90
20560;DHT22;10438;51.454;6.718;2023-04-01T08:28:40;9.70;99.90
20560;DHT22;10438;51.454;6.718;2023-04-01T08:31:13;9.70;99.90
20560;DHT22;10438;51.454;6.718;2023-04-01T08:33:42;9.70;99.90
20560;DHT22;10438;51.454;6.718;2023-04-01T08:36:25;9.70;99.90
20560;DHT22;10438;51.454;6.718;2023-04-01T08:39:07;9.70;99.90
20560;DHT22;10438;51.454;6.718;2023-04-01T08:41:47;9.80;99.90
20560;DHT22;10438;51.454;6.718;2023-04-01T08:44:41;9.80;99.90
20560;DHT22;10438;51.454;6.718;2023-04-01T08:52:37;9.80;99.90
20560;DHT22;10438;51.454;6.718;2023-04-01T08:55:28;9.80;99.90
20560;DHT22;10438;51.454;6.718;2023-04-01T08:58:27;9.80;99.90
20560;DHT22;10438;51.454;6.718;2023-04-01T09:10:24;10.00;99.90
20560;DHT22;10438;51.454;6.718;2023-04-01T09:13:05;10.00;99.90
20560;DHT22;10438;51.454;6.718;2023-04-01T09:27:28;10.30;99.90
20560;DHT22;10438;51.454;6.718;2023-04-01T09:33:24;10.30;99.90
20560;DHT22;10438;51.454;6.718;2023-04-01T09:36:07;10.30;99.90
20560;DHT22;10438;51.454;6.718;2023-04-01T09:39:09;10.30;99.90
20560;DHT22;10438;51.454;6.718;2023-04-01T09:44:35;10.30;99.90
20560;DHT22;10438;51.454;6.718;2023-04-01T09:53:26;10.20;99.90
20560;DHT22;10438;51.454;6.718;2023-04-01T09:58:44;10.30;99.90
20560;DHT22;10438;51.454;6.718;2023-04-01T10:01:33;10.30;99.90
20560;DHT22;10438;51.454;6.718;2023-04-01T10:10:26;10.30;99.90
20560;DHT22;10438;51.454;6.718;2023-04-01T10:21:37;10.40;99.90
20560;DHT22;10438;51.454;6.718;2023-04-01T10:26:58;10.40;99.90
20560;DHT22;10438;51.454;6.718;2023-04-01T10:35:01;10.40;99.90
20560;DHT22;10438;51.454;6.718;2023-04-01T10:38:03;10.40;99.90
20560;DHT22;10438;51.454;6.718;2023-04-01T10:41:06;10.40;99.90
20560;DHT22;10438;51.454;6.718;2023-04-01T10:49:48;10.30;99.90
20560;DHT22;10438;51.454;6.718;2023-04-01T10:52:48;10.30;99.90
20560;DHT22;10438;51.454;6.718;2023-04-01T11:04:22;10.30;99.90
20560;DHT22;10438;51.454;6.718;2023-04-01T11:18:00;10.30;99.90
20560;DHT22;10438;51.454;6.718;2023-04-01T11:23:46;10.40;99.90
20560;DHT22;10438;51.454;6.718;2023-04-01T11:35:12;10.40;99.90
20560;DHT22;10438;51.454;6.718;2023-04-01T11:37:51;10.40;99.90
20560;DHT22;10438;51.454;6.718;2023-04-01T11:40:33;10.40;99.90
20560;DHT22;10438;51.454;6.718;2023-04-01T11:46:15;10.40;99.90
20560;DHT22;10438;51.454;6.718;2023-04-01T12:00:29;10.60;99.90
20560;DHT22;10438;51.454;6.718;2023-04-01T12:03:36;10.60;99.90
20560;DHT22;10438;51.454;6.718;2023-04-01T12:12:09;10.90;99.90
20560;DHT22;10438;51.454;6.718;2023-04-01T12:17:45;11.10;99.90
20560;DHT22;10438;51.454;6.718;2023-04-01T12:20:29;11.20;99.90
20560;DHT22;10438;51.454;6.718;2023-04-01T12:26:18;11.20;99.90
20560;DHT22;10438;51.454;6.718;2023-04-01T12:28:48;11.10;99.90
20560;DHT22;10438;51.454;6.718;2023-04-01T12:31:23;11.10;99.90
20560;DHT22;10438;51.454;6.718;2023-04-01T12:48:01;10.70;99.90
20560;DHT22;10438;51.454;6.718;2023-04-01T12:51:09;10.60;99.90
20560;DHT22;10438;51.454;6.718;2023-04-01T13:02:35;10.50;99.90
20560;DHT22;10438;51.454;6.718;2023-04-01T13:05:31;10.50;99.90
20560;DHT22;10438;51.454;6.718;2023-04-01T13:10:58;10.50;99.90
20560;DHT22;10438;51.454;6.718;2023-04-01T13:21:38;10.40;99.90
20560;DHT22;10438;51.454;6.718;2023-04-01T13:29:34;10.40;99.90
20560;DHT22;10438;51.454;6.718;2023-04-01T13:34:45;10.40;99.90
20560;DHT22;10438;51.454;6.718;2023-04-01T13:42:53;10.40;99.90
20560;DHT22;10438;51.454;6.718;2023-04-01T13:49:03;10.40;99.90
20560;DHT22;10438;51.454;6.718;2023-04-01T14:06:09;10.40;99.90
20560;DHT22;10438;51.454;6.718;2023-04-01T14:08:55;10.50;99.90
20560;DHT22;10438;51.454;6.718;2023-04-01T14:11:56;10.40;99.90
20560;DHT22;10438;51.454;6.718;2023-04-01T14:17:49;10.50;99.90
20560;DHT22;10438;51.454;6.718;2023-04-01T14:26:50;10.50;99.90
20560;DHT22;10438;51.454;6.718;2023-04-01T14:32:16;10.40;99.90
20560;DHT22;10438;51.454;6.718;2023-04-01T14:37:34;10.40;99.90
20560;DHT22;10438;51.454;6.718;2023-04-01T14:40:34;10.40;99.90
20560;DHT22;10438;51.454;6.718;2023-04-01T14:48:36;10.40;99.90
20560;DHT22;10438;51.454;6.718;2023-04-01T14:51:16;10.40;99.90
20560;DHT22;10438;51.454;6.718;2023-04-01T14:53:53;10.40;99.90
20560;DHT22;10438;51.454;6.718;2023-04-01T14:56:44;10.40;99.90
20560;DHT22;10438;51.454;6.718;2023-04-01T15:01:50;10.30;99.90
20560;DHT22;10438;51.454;6.718;2023-04-01T15:10:24;10.30;99.90
20560;DHT22;10438;51.454;6.718;2023-04-01T15:13:14;10.30;99.90
20560;DHT22;10438;51.454;6.718;2023-04-01T15:16:02;10.30;99.90
20560;DHT22;10438;51.454;6.718;2023-04-01T15:24:40;10.40;99.90
20560;DHT22;10438;51.454;6.718;2023-04-01T15:33:29;10.50;99.90
20560;DHT22;10438;51.454;6.718;2023-04-01T15:35:57;10.50;99.90
20560;DHT22;10438;51.454;6.718;2023-04-01T15:38:29;10.50;99.90
20560;DHT22;10438;51.454;6.718;2023-04-01T15:41:05;10.50;99.90
20560;DHT22;10438;51.454;6.718;2023-04-01T15:43:49;10.50;99.90
20560;DHT22;10438;51.454;6.718;2023-04-01T15:46:44;10.50;99.90
20560;DHT22;10438;51.454;6.718;2023-04-01T15:55:01;10.50;99.90
20560;DHT22;10438;51.454;6.718;2023-04-01T15:57:52;10.50;99.90
20560;DHT22;10438;51.454;6.718;2023-04-01T16:00:29;10.60;99.90
20560;DHT22;10438;51.454;6.718;2023-04-01T16:09:09;10.60;99.90
20560;DHT22;10438;51.454;6.718;2023-04-01T16:17:57;10.60;99.90
20560;DHT22;10438;51.454;6.718;2023-04-01T16:23:39;10.60;99.90
20560;DHT22;10438;51.454;6.718;2023-04-01T16:26:19;10.50;99.90
20560;DHT22;10438;51.454;6.718;2023-04-01T16:31:37;10.50;99.90
20560;DHT22;10438;51.454;6.718;2023-04-01T16:34:20;10.50;99.90
20560;DHT22;10438;51.454;6.718;2023-04-01T16:37:21;10.40;99.90
20560;DHT22;10438;51.454;6.718;2023-04-01T16:39:54;10.40;99.90
20560;DHT22;10438;51.454;6.718;2023-04-01T16:45:41;10.30;99.90
20560;DHT22;10438;51.454;6.718;2023-04-01T16:48:24;10.30;99.90
20560;DHT22;10438;51.454;6.718;2023-04-01T16:50:55;10.30;99.90
20560;DHT22;10438;51.454;6.718;2023-04-01T16:56:43;10.30;99.90
20560;DHT22;10438;51.454;6.718;2023-04-01T16:59:14;10.30;99.90
20560;DHT22;10438;51.454;6.718;2023-04-01T17:04:42;10.30;99.90
20560;DHT22;10438;51.454;6.718;2023-04-01T17:07:24;10.30;99.90
20560;DHT22;10438;51.454;6.718;2023-04-01T17:10:06;10.30;99.90
20560;DHT22;10438;51.454;6.718;2023-04-01T17:19:01;10.30;99.90
20560;DHT22;10438;51.454;6.718;2023-04-01T17:22:03;10.30;99.90
20560;DHT22;10438;51.454;6.718;2023-04-01T17:24:38;10.30;99.90
20560;DHT22;10438;51.454;6.718;2023-04-01T17:30:10;10.30;99.90
20560;DHT22;10438;51.454;6.718;2023-04-01T17:35:35;10.20;99.90
20560;DHT22;10438;51.454;6.718;2023-04-01T17:41:42;10.20;99.90
20560;DHT22;10438;51.454;6.718;2023-04-01T17:49:37;10.20;99.90
20560;DHT22;10438;51.454;6.718;2023-04-01T17:52:27;10.20;99.90
20560;DHT22;10438;51.454;6.718;2023-04-01T17:55:26;10.20;99.90
20560;DHT22;10438;51.454;6.718;2023-04-01T17:58:29;10.20;99.90
20560;DHT22;10438;51.454;6.718;2023-04-01T18:04:11;10.20;99.90
20560;DHT22;10438;51.454;6.718;2023-04-01T18:07:09;10.20;99.90
20560;DHT22;10438;51.454;6.718;2023-04-01T18:15:31;10.20;99.90
20560;DHT22;10438;51.454;6.718;2023-04-01T18:18:16;10.20;99.90
20560;DHT22;10438;51.454;6.718;2023-04-01T18:20:56;10.20;99.90
20560;DHT22;10438;51.454;6.718;2023-04-01T18:23:35;10.20;99.90
20560;DHT22;10438;51.454;6.718;2023-04-01T18:26:08;10.10;99.90
20560;DHT22;10438;51.454;6.718;2023-04-01T18:28:41;10.10;99.90
20560;DHT22;10438;51.454;6.718;2023-04-01T18:31:17;10.20;99.90
20560;DHT22;10438;51.454;6.718;2023-04-01T18:36:59;10.10;99.90
20560;DHT22;10438;51.454;6.718;2023-04-01T18:39:41;10.10;99.90
20560;DHT22;10438;51.454;6.718;2023-04-01T18:45:17;10.10;99.90
20560;DHT22;10438;51.454;6.718;2023-04-01T18:47:57;10.10;99.90
20560;DHT22;10438;51.454;6.718;2023-04-01T18:50:27;10.10;99.90
20560;DHT22;10438;51.454;6.718;2023-04-01T18:53:08;10.10;99.90
20560;DHT22;10438;51.454;6.718;2023-04-01T18:55:43;10.10;99.90
20560;DHT22;10438;51.454;6.718;2023-04-01T18:58:24;10.10;99.90
20560;DHT22;10438;51.454;6.718;2023-04-01T19:01:28;10.20;99.90
20560;DHT22;10438;51.454;6.718;2023-04-01T19:06:48;10.10;99.90
20560;DHT22;10438;51.454;6.718;2023-04-01T19:09:27;10.10;99.90
20560;DHT22;10438;51.454;6.718;2023-04-01T19:14:51;10.20;99.90
20560;DHT22;10438;51.454;6.718;2023-04-01T19:17:37;10.30;99.90
20560;DHT22;10438;51.454;6.718;2023-04-01T19:23:07;10.20;99.90
20560;DHT22;10438;51.454;6.718;2023-04-01T19:25:51;10.20;99.90
20560;DHT22;10438;51.454;6.718;2023-04-01T19:28:47;10.20;99.90
20560;DHT22;10438;51.454;6.718;2023-04-01T19:31:34;10.20;99.90
20560;DHT22;10438;51.454;6.718;2023-04-01T19:34:18;10.10;99.90
20560;DHT22;10438;51.454;6.718;2023-04-01T19:37:00;10.10;99.90
20560;DHT22;10438;51.454;6.718;2023-04-01T19:48:07;10.00;99.90
20560;DHT22;10438;51.454;6.718;2023-04-01T19:50:37;10.00;99.90
20560;DHT22;10438;51.454;6.718;2023-04-01T19:56:22;9.90;99.90
20560;DHT22;10438;51.454;6.718;2023-04-01T19:59:02;9.90;99.90
20560;DHT22;10438;51.454;6.718;2023-04-01T20:04:13;9.80;99.90
20560;DHT22;10438;51.454;6.718;2023-04-01T20:06:51;9.80;99.90
20560;DHT22;10438;51.454;6.718;2023-04-01T20:14:50;9.60;99.90
20560;DHT22;10438;51.454;6.718;2023-04-01T20:17:26;9.60;99.90
20560;DHT22;10438;51.454;6.718;2023-04-01T20:22:34;9.50;99.90
20560;DHT22;10438;51.454;6.718;2023-04-01T20:25:27;9.50;99.90
20560;DHT22;10438;51.454;6.718;2023-04-01T20:31:08;9.50;99.90
20560;DHT22;10438;51.454;6.718;2023-04-01T20:33:59;9.50;99.90
20560;DHT22;10438;51.454;6.718;2023-04-01T20:36:34;9.50;99.90
20560;DHT22;10438;51.454;6.718;2023-04-01T20:47:03;9.30;99.90
20560;DHT22;10438;51.454;6.718;2023-04-01T20:49:56;9.30;99.90
20560;DHT22;10438;51.454;6.718;2023-04-01T20:52:41;9.30;99.90
20560;DHT22;10438;51.454;6.718;2023-04-01T20:58:07;9.20;99.90
20560;DHT22;10438;51.454;6.718;2023-04-01T21:03:49;9.10;99.90
20560;DHT22;10438;51.454;6.718;2023-04-01T21:06:41;9.00;99.90
20560;DHT22;10438;51.454;6.718;2023-04-01T21:12:05;9.00;99.90
20560;DHT22;10438;51.454;6.718;2023-04-01T21:17:35;8.90;99.90
20560;DHT22;10438;51.454;6.718;2023-04-01T21:22:52;8.90;99.90
20560;DHT22;10438;51.454;6.718;2023-04-01T21:25:53;8.90;99.90
20560;DHT22;10438;51.454;6.718;2023-04-01T21:34:35;8.80;99.90
20560;DHT22;10438;51.454;6.718;2023-04-01T21:37:22;8.80;99.90
20560;DHT22;10438;51.454;6.718;2023-04-01T21:40:02;8.70;99.90
20560;DHT22;10438;51.454;6.718;2023-04-01T21:43:01;8.70;99.90
20560;DHT22;10438;51.454;6.718;2023-04-01T22:08:27;8.40;99.90
20560;DHT22;10438;51.454;6.718;2023-04-01T22:13:33;8.30;99.90
20560;DHT22;10438;51.454;6.718;2023-04-01T22:16:07;8.20;99.90
20560;DHT22;10438;51.454;6.718;2023-04-01T22:19:12;8.20;99.90
20560;DHT22;10438;51.454;6.718;2023-04-01T22:21:46;8.20;99.90
20560;DHT22;10438;51.454;6.718;2023-04-01T22:24:34;8.20;99.90
20560;DHT22;10438;51.454;6.718;2023-04-01T22:27:06;8.10;99.90
20560;DHT22;10438;51.454;6.718;2023-04-01T22:32:43;8.10;99.90
20560;DHT22;10438;51.454;6.718;2023-04-01T22:40:54;8.00;99.90
20560;DHT22;10438;51.454;6.718;2023-04-01T22:46:21;8.00;99.90
20560;DHT22;10438;51.454;6.718;2023-04-01T22:51:28;7.90;99.90
20560;DHT22;10438;51.454;6.718;2023-04-01T22:57:28;7.90;99.90
20560;DHT22;10438;51.454;6.718;2023-04-01T23:00:05;7.90;99.90
20560;DHT22;10438;51.454;6.718;2023-04-01T23:05:40;7.80;99.90
20560;DHT22;10438;51.454;6.718;2023-04-01T23:11:07;7.80;99.90
20560;DHT22;10438;51.454;6.718;2023-04-01T23:13:38;7.80;99.90
20560;DHT22;10438;51.454;6.718;2023-04-01T23:16:05;7.70;99.90
20560;DHT22;10438;51.454;6.718;2023-04-01T23:18:36;7.70;99.90
20560;DHT22;10438;51.454;6.718;2023-04-01T23:24:09;7.60;99.90
20560;DHT22;10438;51.454;6.718;2023-04-01T23:26:39;7.60;99.90
20560;DHT22;10438;51.454;6.718;2023-04-01T23:29:14;7.60;99.90
20560;DHT22;10438;51.454;6.718;2023-04-01T23:31:45;7.50;99.90
20560;DHT22;10438;51.454;6.718;2023-04-01T23:36:47;7.50;99.90
20560;DHT22;10438;51.454;6.718;2023-04-01T23:39:30;7.50;99.90
20560;DHT22;10438;51.454;6.718;2023-04-01T23:42:05;7.50;99.90
20560;DHT22;10438;51.454;6.718;2023-04-01T23:44:33;7.40;99.90
20560;DHT22;10438;51.454;6.718;2023-04-01T23:47:00;7.40;99.90
20560;DHT22;10438;51.454;6.718;2023-04-01T23:49:44;7.40;99.90
20560;DHT22;10438;51.454;6.718;2023-04-01T23:52:23;7.40;99.90
20560;DHT22;10438;51.454;6.718;2023-04-01T23:57:22;7.30;99.90
